Time;durP1;ratioP1;P1;durP2;ratioP2;P2;SDS_P1;SDS_P2;PMS_P1;PMS_P2;Temp;Humidity;BMP_temperature;BMP_pressure;BME280_temperature;BME280_humidity;BME280_pressure;Samples;Min_cycle;Max_cycle;Signal;HPM_P1;HPM_P2
2022/01/24 00:01:06;;;;;;;27.00;15.60;;;;;;;;;;5062878;28;20483;-73
2022/01/24 00:03:32;;;;;;;24.35;15.07;;;5.80;99.90;;;;;;5104757;28;20039;-73
2022/01/24 00:05:58;;;;;;;24.95;14.85;;;;;;;;;;5074537;28;20032;-73
2022/01/24 00:08:24;;;;;;;25.98;14.65;;;;;;;;;;5098089;28;20155;-73
2022/01/24 00:10:52;;;;;;;25.10;15.25;;;;;;;;;;5111896;28;20055;-73
2022/01/24 00:18:26;;;;;;;20.48;13.80;;;;;;;;;;5111199;28;20060;-73
2022/01/24 00:26:45;;;;;;;18.92;12.77;;;;;;;;;;5115456;28;20043;-73
2022/01/24 00:29:11;;;;;;;18.52;12.50;;;;;;;;;;5103632;28;20047;-73
2022/01/24 00:31:37;;;;;;;19.95;12.70;;;;;;;;;;5095114;28;20063;-73
2022/01/24 00:34:04;;;;;;;18.85;12.52;;;6.20;99.90;;;;;;5103820;28;20032;-73
2022/01/24 00:36:31;;;;;;;19.85;12.50;;;;;;;;;;5094780;28;20040;-73
2022/01/24 00:38:57;;;;;;;21.17;13.00;;;;;;;;;;5103500;28;20434;-73
2022/01/24 00:41:23;;;;;;;20.63;12.88;;;6.70;99.90;;;;;;5115182;28;20175;-73
2022/01/24 00:46:44;;;;;;;20.38;12.30;;;;;;;;;;5098889;28;20039;-73
2022/01/24 00:54:44;;;;;;;20.38;12.15;;;;;;;;;;5107308;28;20167;-73
2022/01/24 00:57:11;;;;;;;18.45;11.75;;;6.00;99.90;;;;;;5115212;28;20043;-73
2022/01/24 00:59:37;;;;;;;19.38;11.63;;;;;;;;;;5085595;28;20044;-73
2022/01/24 01:02:05;;;;;;;17.63;12.02;;;6.20;99.90;;;;;;5094165;28;20036;-73
2022/01/24 01:04:54;;;;;;;19.35;11.88;;;;;;;;;;5087001;28;20048;-73
2022/01/24 01:18:05;;;;;;;20.92;12.27;;;6.10;99.90;;;;;;5094594;28;20044;-73
2022/01/24 01:18:08;;;;;;;16.20;11.48;;;;;;;;;;5114481;28;20050;-73
2022/01/24 01:18:45;;;;;;;17.85;11.32;;;;;;;;;;5096541;28;20593;-73
2022/01/24 01:21:13;;;;;;;18.33;11.73;;;6.00;99.90;;;;;;5114707;28;20392;-73
2022/01/24 01:23:44;;;;;;;18.92;12.13;;;5.90;99.90;;;;;;5096838;28;20184;-73
2022/01/24 01:26:23;;;;;;;20.02;12.18;;;;;;;;;;5076265;28;20496;-73
2022/01/24 01:28:55;;;;;;;19.02;11.75;;;;;;;;;;5107482;28;20036;-73
2022/01/24 01:55:47;;;;;;;15.55;10.50;;;;;;;;;;5107920;28;20043;-73
2022/01/24 01:58:16;;;;;;;16.13;10.73;;;6.00;99.90;;;;;;5113322;28;20118;-73
2022/01/24 02:00:48;;;;;;;15.18;10.13;;;5.90;99.90;;;;;;5100162;28;20044;-73
2022/01/24 02:03:14;;;;;;;17.02;10.02;;;;;;;;;;5093424;28;20044;-73
2022/01/24 02:05:40;;;;;;;14.73;9.70;;;;;;;;;;5105645;28;20543;-73
2022/01/24 02:08:06;;;;;;;13.40;9.50;;;;;;;;;;5113297;28;20126;-73
2022/01/24 02:10:35;;;;;;;14.20;10.27;;;;;;;;;;5104858;28;20047;-73
2022/01/24 02:13:01;;;;;;;13.13;9.20;;;;;;;;;;5113580;28;20039;-73
2022/01/24 02:18:53;;;;;;;14.55;9.63;;;;;;;;;;5034988;28;20091;-73
2022/01/24 02:21:40;;;;;;;12.85;8.80;;;5.90;99.90;;;;;;5021281;28;20052;-73
2022/01/24 02:24:06;;;;;;;13.23;9.32;;;;;;;;;;5078017;28;20594;-73
2022/01/24 02:26:33;;;;;;;16.52;9.57;;;;;;;;;;5104643;28;20035;-73
2022/01/24 02:29:09;;;;;;;12.95;8.73;;;;;;;;;;5099320;28;20118;-73
2022/01/24 02:34:05;;;;;;;13.55;9.50;;;;;;;;;;5092700;28;20526;-73
2022/01/24 02:36:31;;;;;;;16.38;9.65;;;;;;;;;;5097799;28;20039;-73
2022/01/24 02:39:29;;;;;;;13.00;9.40;;;;;;;;;;5107038;28;20146;-73
2022/01/24 02:50:07;;;;;;;13.30;9.30;;;;;;;;;;5092391;28;20114;-73
2022/01/24 02:52:33;;;;;;;14.10;9.45;;;;;;;;;;5103015;28;20042;-73
2022/01/24 02:54:59;;;;;;;16.45;9.27;;;;;;;;;;5092496;28;20131;-73
2022/01/24 02:57:25;;;;;;;15.38;9.93;;;;;;;;;;5101464;28;20031;-73
2022/01/24 02:59:52;;;;;;;14.60;10.18;;;;;;;;;;5099573;28;20040;-73
2022/01/24 03:02:18;;;;;;;15.57;9.93;;;;;;;;;;5101225;28;20050;-74
2022/01/24 03:04:44;;;;;;;14.27;9.40;;;;;;;;;;5091475;28;20400;-73
2022/01/24 03:07:10;;;;;;;13.38;8.85;;;;;;;;;;5099408;28;20085;-73
2022/01/24 03:09:36;;;;;;;14.60;9.45;;;;;;;;;;5111922;28;20035;-73
2022/01/24 03:12:11;;;;;;;14.55;8.88;;;;;;;;;;5106375;28;20549;-74
2022/01/24 03:14:37;;;;;;;17.17;9.50;;;;;;;;;;5109609;28;20044;-73
2022/01/24 03:17:05;;;;;;;14.90;10.00;;;5.60;99.90;;;;;;5107042;28;20067;-73
2022/01/24 03:19:32;;;;;;;18.15;9.63;;;;;;;;;;5091985;28;20040;-73
2022/01/24 03:21:58;;;;;;;14.98;9.88;;;;;;;;;;5095116;28;20039;-73
2022/01/24 03:24:24;;;;;;;16.17;9.48;;;;;;;;;;5094681;28;20044;-73
2022/01/24 03:26:50;;;;;;;15.32;9.27;;;;;;;;;;5109988;28;20368;-73
2022/01/24 03:29:16;;;;;;;15.85;9.55;;;;;;;;;;5098922;28;20137;-73
2022/01/24 03:31:45;;;;;;;16.13;10.20;;;;;;;;;;5112107;28;20078;-73
2022/01/24 03:34:11;;;;;;;16.60;10.20;;;;;;;;;;5091794;28;20040;-73
2022/01/24 03:36:37;;;;;;;17.63;10.70;;;5.50;99.90;;;;;;5091823;28;20121;-73
2022/01/24 03:39:03;;;;;;;15.07;10.10;;;;;;;;;;5093183;28;20086;-73
2022/01/24 03:41:30;;;;;;;15.65;9.75;;;;;;;;;;5104662;28;20072;-73
2022/01/24 03:44:02;;;;;;;16.08;10.73;;;;;;;;;;5108289;28;20089;-73
2022/01/24 03:46:36;;;;;;;15.68;9.82;;;;;;;;;;5112273;28;20034;-73
2022/01/24 03:49:44;;;;;;;17.15;10.95;;;;;;;;;;5097276;28;20036;-73
2022/01/24 03:51:48;;;;;;;18.67;10.75;;;;;;;;;;5094505;28;20537;-73
2022/01/24 03:54:14;;;;;;;15.13;10.55;;;;;;;;;;5114327;28;20387;-73
2022/01/24 03:56:40;;;;;;;17.63;11.10;;;;;;;;;;5082744;28;20051;-73
2022/01/24 03:59:06;;;;;;;16.23;11.50;;;;;;;;;;5091783;28;20051;-73
2022/01/24 04:01:32;;;;;;;17.45;10.88;;;;;;;;;;5078511;28;20082;-73
2022/01/24 04:03:58;;;;;;;17.10;10.82;;;;;;;;;;5110660;28;20039;-73
2022/01/24 04:06:24;;;;;;;17.02;11.57;;;;;;;;;;5116163;28;20040;-73
2022/01/24 04:08:50;;;;;;;17.10;10.98;;;;;;;;;;5102681;28;20044;-73
2022/01/24 04:11:16;;;;;;;16.50;10.52;;;;;;;;;;5115347;28;20038;-73
2022/01/24 04:13:44;;;;;;;16.25;10.88;;;;;;;;;;5103350;28;20066;-73
2022/01/24 04:16:27;;;;;;;17.75;10.75;;;;;;;;;;5095548;28;20392;-73
2022/01/24 04:23:56;;;;;;;15.05;10.43;;;5.70;99.90;;;;;;5106285;28;20047;-73
2022/01/24 04:26:23;;;;;;;17.98;10.70;;;;;;;;;;5115616;28;20043;-73
2022/01/24 04:28:49;;;;;;;16.65;11.23;;;;;;;;;;5104489;28;20047;-73
2022/01/24 04:31:15;;;;;;;18.23;11.18;;;5.80;99.90;;;;;;5115288;28;20036;-73
2022/01/24 04:33:41;;;;;;;18.08;11.75;;;;;;;;;;5105985;28;20055;-73
2022/01/24 04:36:07;;;;;;;19.83;11.52;;;;;;;;;;5095068;28;20040;-73
2022/01/24 04:38:33;;;;;;;17.02;11.23;;;5.80;99.90;;;;;;5103696;28;20055;-74
2022/01/24 04:41:04;;;;;;;20.10;11.57;;;;;;;;;;5077913;28;20043;-73
2022/01/24 04:43:48;;;;;;;17.42;11.60;;;;;;;;;;5100699;28;20040;-73
2022/01/24 04:54:36;;;;;;;18.85;11.18;;;;;;;;;;5105876;28;20040;-74
2022/01/24 04:56:49;;;;;;;19.60;12.57;;;;;;;;;;5094629;28;20075;-73
2022/01/24 04:59:15;;;;;;;20.40;12.50;;;;;;;;;;5095319;28;20044;-73
2022/01/24 05:01:41;;;;;;;20.48;11.93;;;;;;;;;;5094265;28;20032;-73
2022/01/24 05:04:07;;;;;;;18.30;11.70;;;;;;;;;;5102446;28;20495;-73
2022/01/24 05:06:33;;;;;;;18.80;12.40;;;;;;;;;;5098858;28;20097;-73
2022/01/24 05:09:00;;;;;;;19.00;12.52;;;;;;;;;;5100520;28;20114;-73
2022/01/24 05:11:46;;;;;;;17.80;11.02;;;;;;;;;;5114844;28;20046;-73
2022/01/24 05:25:10;;;;;;;18.25;12.20;;;;;;;;;;5107978;28;20039;-73
2022/01/24 05:27:36;;;;;;;20.30;11.82;;;;;;;;;;5105843;28;20112;-73
2022/01/24 05:30:02;;;;;;;20.48;12.20;;;;;;;;;;5106316;28;20075;-75
2022/01/24 05:32:28;;;;;;;20.52;12.38;;;;;;;;;;5113783;28;20031;-73
2022/01/24 05:34:54;;;;;;;19.70;11.60;;;;;;;;;;5103466;28;20039;-73
2022/01/24 05:37:20;;;;;;;19.90;12.10;;;4.70;99.90;;;;;;5098718;28;20533;-73
2022/01/24 05:39:46;;;;;;;23.77;12.75;;;;;;;;;;5100567;28;20060;-73
2022/01/24 05:42:12;;;;;;;18.27;11.25;;;;;;;;;;5093182;28;20043;-73
2022/01/24 05:44:38;;;;;;;21.05;12.68;;;;;;;;;;5107645;28;20388;-73
2022/01/24 05:47:04;;;;;;;20.33;12.60;;;5.70;99.90;;;;;;5076995;28;20075;-73
2022/01/24 05:49:30;;;;;;;20.30;12.10;;;;;;;;;;5097482;28;20421;-73
2022/01/24 05:51:56;;;;;;;21.92;12.48;;;;;;;;;;5093381;28;20105;-73
2022/01/24 05:54:22;;;;;;;22.70;13.15;;;;;;;;;;5095774;28;20024;-73
2022/01/24 05:56:48;;;;;;;20.83;13.27;;;;;;;;;;5095622;28;20433;-73
2022/01/24 05:59:14;;;;;;;19.95;13.18;;;;;;;;;;5106608;28;20377;-73
2022/01/24 06:01:40;;;;;;;20.25;12.07;;;;;;;;;;5112856;28;20039;-73
2022/01/24 06:04:06;;;;;;;20.58;13.43;;;;;;;;;;5113686;28;20123;-73
2022/01/24 06:06:32;;;;;;;22.50;11.80;;;;;;;;;;5093497;28;20039;-75
2022/01/24 06:08:58;;;;;;;20.33;11.93;;;;;;;;;;5082961;28;20040;-73
2022/01/24 06:11:24;;;;;;;23.17;12.02;;;;;;;;;;5092977;28;20404;-72
2022/01/24 06:13:51;;;;;;;21.20;12.65;;;6.40;99.90;;;;;;5091527;28;20036;-73
2022/01/24 06:16:17;;;;;;;21.45;12.98;;;;;;;;;;5108343;28;20047;-73
2022/01/24 06:18:44;;;;;;;21.58;13.18;;;;;;;;;;5113248;28;20388;-73
2022/01/24 06:21:10;;;;;;;25.80;13.38;;;;;;;;;;5106332;28;20092;-73
2022/01/24 06:23:36;;;;;;;23.70;13.52;;;;;;;;;;5092895;28;20047;-73
2022/01/24 06:26:02;;;;;;;24.48;13.90;;;;;;;;;;5077380;28;20047;-73
2022/01/24 06:28:28;;;;;;;23.55;13.60;;;;;;;;;;5076252;28;20052;-73
2022/01/24 06:30:54;;;;;;;23.30;12.85;;;;;;;;;;5102882;28;20048;-73
2022/01/24 06:33:20;;;;;;;25.83;13.32;;;;;;;;;;5092752;28;20068;-73
2022/01/24 06:35:46;;;;;;;23.63;13.68;;;;;;;;;;5092989;28;20526;-73
2022/01/24 06:38:12;;;;;;;24.92;13.68;;;;;;;;;;5112832;28;20069;-73
2022/01/24 06:40:38;;;;;;;23.48;12.93;;;;;;;;;;5112911;28;20087;-73
2022/01/24 06:43:05;;;;;;;29.95;13.45;;;;;;;;;;5075041;28;20503;-73
2022/01/24 06:45:31;;;;;;;23.90;13.40;;;;;;;;;;5108326;28;20040;-73
2022/01/24 06:47:57;;;;;;;25.73;14.25;;;;;;;;;;5093424;28;20506;-73
2022/01/24 06:50:23;;;;;;;27.00;15.68;;;;;;;;;;5112148;28;20372;-73
2022/01/24 06:52:48;;;;;;;26.33;14.40;;;5.00;99.90;;;;;;5096348;28;20482;-73
2022/01/24 06:55:15;;;;;;;27.30;14.45;;;;;;;;;;5092245;28;20068;-73
2022/01/24 06:57:41;;;;;;;27.10;13.93;;;;;;;;;;5104578;28;20044;-73
2022/01/24 07:00:07;;;;;;;25.83;14.35;;;5.40;99.90;;;;;;5075568;28;20048;-73
2022/01/24 07:02:33;;;;;;;30.75;17.08;;;;;;;;;;5087244;28;20043;-73
2022/01/24 07:05:00;;;;;;;27.02;14.23;;;;;;;;;;5112805;28;20108;-73
2022/01/24 07:07:26;;;;;;;29.83;14.55;;;;;;;;;;5101143;28;20040;-73
2022/01/24 07:09:52;;;;;;;24.17;13.52;;;;;;;;;;5092025;28;20122;-73
2022/01/24 07:12:18;;;;;;;30.42;16.13;;;5.90;99.90;;;;;;5085177;28;20075;-73
2022/01/24 07:14:44;;;;;;;27.77;14.27;;;;;;;;;;5112338;28;20077;-73
2022/01/24 07:17:31;;;;;;;25.02;14.25;;;;;;;;;;5104056;28;20092;-73
2022/01/24 07:19:57;;;;;;;28.73;14.38;;;;;;;;;;5092297;28;20093;-73
2022/01/24 07:22:23;;;;;;;34.63;15.68;;;;;;;;;;5095349;28;20396;-73
2022/01/24 07:24:50;;;;;;;25.42;15.02;;;;;;;;;;5096483;28;20051;-73
2022/01/24 07:27:16;;;;;;;26.63;15.07;;;;;;;;;;5106156;28;20527;-73
2022/01/24 07:29:42;;;;;;;27.00;15.25;;;4.60;99.90;;;;;;5095860;28;20124;-74
2022/01/24 07:32:08;;;;;;;29.33;14.93;;;;;;;;;;5100936;28;20070;-74
2022/01/24 07:34:34;;;;;;;28.17;15.32;;;;;;;;;;5099472;28;20089;-74
2022/01/24 07:37:00;;;;;;;28.05;15.55;;;;;;;;;;5112430;28;20051;-73
2022/01/24 07:39:26;;;;;;;25.88;14.27;;;4.80;99.90;;;;;;5097111;28;20056;-73
2022/01/24 07:41:52;;;;;;;26.48;15.35;;;4.80;99.90;;;;;;5113508;28;20384;-73
2022/01/24 07:44:20;;;;;;;28.02;15.05;;;;;;;;;;5096237;28;20043;-73
2022/01/24 07:46:46;;;;;;;28.67;15.18;;;;;;;;;;5096119;28;20395;-73
2022/01/24 07:49:12;;;;;;;28.05;15.02;;;;;;;;;;5116326;28;20043;-73
2022/01/24 07:51:39;;;;;;;27.00;14.35;;;;;;;;;;5113211;28;20039;-73
2022/01/24 07:54:06;;;;;;;23.85;12.73;;;;;;;;;;5107932;28;20070;-73
2022/01/24 07:56:32;;;;;;;27.35;15.10;;;;;;;;;;5078493;28;20032;-76
2022/01/24 07:58:58;;;;;;;25.42;13.60;;;;;;;;;;5112275;28;20071;-75
2022/01/24 08:01:26;;;;;;;24.90;14.00;;;;;;;;;;5115219;28;20039;-72
2022/01/24 08:03:52;;;;;;;29.35;16.10;;;;;;;;;;5099978;28;20503;-71
2022/01/24 08:06:18;;;;;;;30.77;16.20;;;;;;;;;;5096763;28;20459;-71
2022/01/24 08:08:44;;;;;;;28.00;15.27;;;;;;;;;;5109194;28;20047;-71
2022/01/24 08:11:11;;;;;;;28.35;15.50;;;;;;;;;;5115643;28;20036;-72
2022/01/24 08:13:37;;;;;;;29.65;14.88;;;;;;;;;;5085784;28;20209;-72
2022/01/24 08:16:04;;;;;;;32.97;16.40;;;;;;;;;;5095189;28;20036;-72
2022/01/24 08:18:30;;;;;;;32.90;17.70;;;;;;;;;;5097888;28;20062;-72
2022/01/24 08:20:56;;;;;;;42.42;19.02;;;;;;;;;;5098512;28;20051;-72
2022/01/24 08:23:22;;;;;;;36.05;17.25;;;;;;;;;;5105191;28;20082;-72
2022/01/24 08:25:48;;;;;;;36.15;17.80;;;;;;;;;;5115314;28;20039;-72
2022/01/24 08:28:14;;;;;;;32.42;16.02;;;;;;;;;;5108685;28;20063;-72
2022/01/24 08:30:40;;;;;;;35.05;18.13;;;;;;;;;;5092817;28;20066;-72
2022/01/24 08:33:07;;;;;;;34.35;16.88;;;;;;;;;;5094830;28;20117;-72
2022/01/24 08:35:33;;;;;;;33.47;17.58;;;5.60;99.90;;;;;;5109559;28;20040;-72
2022/01/24 08:37:59;;;;;;;32.65;17.60;;;;;;;;;;5095414;27;20031;-72
2022/01/24 08:40:27;;;;;;;33.92;16.75;;;;;;;;;;5122495;27;20127;-72
2022/01/24 08:43:06;;;;;;;33.15;17.38;;;5.60;99.90;;;;;;5094901;28;20492;-72
2022/01/24 08:48:17;;;;;;;32.63;16.35;;;5.60;99.90;;;;;;5094557;28;20047;-72
2022/01/24 08:50:44;;;;;;;30.75;16.73;;;5.60;99.90;;;;;;5094390;28;20469;-72
2022/01/24 08:53:10;;;;;;;33.63;17.83;;;;;;;;;;5094209;28;20032;-72
2022/01/24 08:55:36;;;;;;;37.17;18.42;;;;;;;;;;5094229;28;20044;-72
2022/01/24 08:58:04;;;;;;;32.42;16.65;;;5.70;99.90;;;;;;5094419;28;20119;-72
2022/01/24 09:00:31;;;;;;;32.95;17.25;;;;;;;;;;5094288;28;20044;-72
2022/01/24 09:02:57;;;;;;;34.15;17.63;;;;;;;;;;5094560;28;20067;-72
2022/01/24 09:05:24;;;;;;;36.75;17.95;;;;;;;;;;5094205;28;20044;-72
2022/01/24 09:07:50;;;;;;;36.25;18.55;;;5.70;99.90;;;;;;5077804;28;20062;-72
2022/01/24 09:10:17;;;;;;;34.13;17.92;;;;;;;;;;5093920;28;20044;-72
2022/01/24 09:12:43;;;;;;;37.45;19.98;;;5.90;99.90;;;;;;5077389;28;20032;-72
2022/01/24 09:15:09;;;;;;;35.50;17.80;;;;;;;;;;5094473;28;20118;-72
2022/01/24 09:17:36;;;;;;;41.28;19.45;;;;;;;;;;5077433;28;20490;-72
2022/01/24 09:20:03;;;;;;;38.95;18.92;;;5.60;99.90;;;;;;5094165;28;20044;-72
2022/01/24 09:22:29;;;;;;;35.00;17.58;;;;;;;;;;5093787;28;20040;-72
2022/01/24 09:24:55;;;;;;;41.08;20.40;;;;;;;;;;5077265;28;20075;-72
2022/01/24 09:27:21;;;;;;;41.58;19.63;;;;;;;;;;5094131;28;20106;-72
2022/01/24 09:29:48;;;;;;;38.03;20.30;;;;;;;;;;5098530;28;20044;-72
2022/01/24 09:32:14;;;;;;;39.80;20.00;;;;;;;;;;5114091;28;20036;-72
2022/01/24 09:34:40;;;;;;;37.75;19.92;;;;;;;;;;5113996;28;20039;-72
2022/01/24 09:37:06;;;;;;;39.10;19.80;;;;;;;;;;5113144;28;20035;-72
2022/01/24 09:39:34;;;;;;;40.30;19.60;;;;;;;;;;5087484;28;20054;-72
2022/01/24 09:42:00;;;;;;;39.55;18.77;;;;;;;;;;5101710;28;20046;-72
2022/01/24 09:44:26;;;;;;;41.50;19.70;;;;;;;;;;5105869;28;20039;-72
2022/01/24 09:46:52;;;;;;;38.15;19.25;;;;;;;;;;5099571;28;20043;-72
2022/01/24 09:49:18;;;;;;;41.20;20.30;;;;;;;;;;5099820;28;20396;-71
2022/01/24 09:51:44;;;;;;;39.20;20.80;;;;;;;;;;5093203;28;20036;-71
2022/01/24 09:54:11;;;;;;;42.28;19.48;;;;;;;;;;5097175;28;20035;-72
2022/01/24 09:56:37;;;;;;;41.33;19.77;;;;;;;;;;5106303;28;20040;-72
2022/01/24 09:59:04;;;;;;;41.30;20.55;;;;;;;;;;5084281;28;20040;-72
2022/01/24 10:01:32;;;;;;;38.70;19.15;;;;;;;;;;5096250;28;20063;-72
2022/01/24 10:04:15;;;;;;;36.92;19.25;;;;;;;;;;5108931;28;20081;-72
2022/01/24 10:06:58;;;;;;;41.80;21.15;;;;;;;;;;5103865;28;20032;-72
2022/01/24 10:09:28;;;;;;;36.53;19.90;;;;;;;;;;5099970;28;20411;-71
2022/01/24 10:17:50;;;;;;;40.05;20.85;;;;;;;;;;5106186;28;20133;-72
2022/01/24 10:20:16;;;;;;;40.38;19.63;;;;;;;;;;5100873;28;20073;-72
2022/01/24 10:22:42;;;;;;;43.00;19.50;;;;;;;;;;5109463;28;20185;-72
2022/01/24 10:25:11;;;;;;;39.25;19.85;;;;;;;;;;5102322;28;20373;-72
2022/01/24 10:27:41;;;;;;;47.08;21.83;;;5.80;99.90;;;;;;5095798;28;20040;-71
2022/01/24 10:30:10;;;;;;;40.80;20.85;;;;;;;;;;5099712;28;20050;-71
2022/01/24 10:32:48;;;;;;;37.25;19.23;;;5.70;99.90;;;;;;5103503;28;20107;-71
2022/01/24 10:35:33;;;;;;;42.90;19.67;;;6.00;99.90;;;;;;5097784;28;20162;-71
2022/01/24 10:38:25;;;;;;;39.33;19.50;;;5.90;99.90;;;;;;5084176;28;20039;-71
2022/01/24 10:43:32;;;;;;;41.47;20.40;;;;;;;;;;5093717;28;20070;-71
2022/01/24 10:45:58;;;;;;;49.42;21.05;;;;;;;;;;5103340;28;20115;-71
2022/01/24 10:48:25;;;;;;;40.58;20.58;;;6.00;99.90;;;;;;5099560;28;20032;-71
2022/01/24 10:51:07;;;;;;;43.08;19.85;;;5.70;99.90;;;;;;5101948;28;20074;-71
2022/01/24 10:53:38;;;;;;;40.40;20.83;;;;;;;;;;5111359;28;20118;-71
2022/01/24 10:56:24;;;;;;;43.03;20.20;;;;;;;;;;5099105;28;20100;-71
2022/01/24 10:58:50;;;;;;;36.97;20.08;;;;;;;;;;5093143;28;20046;-71
2022/01/24 11:01:16;;;;;;;42.92;20.75;;;;;;;;;;5102517;28;20096;-71
2022/01/24 11:03:42;;;;;;;41.42;21.58;;;;;;;;;;5108426;27;20035;-71
2022/01/24 11:06:08;;;;;;;41.92;20.80;;;;;;;;;;5083757;28;20040;-71
2022/01/24 11:08:34;;;;;;;41.40;20.98;;;;;;;;;;5092197;28;20388;-71
2022/01/24 11:11:00;;;;;;;45.22;21.77;;;;;;;;;;5101155;28;20031;-71
2022/01/24 11:13:31;;;;;;;42.97;21.05;;;;;;;;;;5093035;28;20031;-72
2022/01/24 11:16:00;;;;;;;55.25;21.25;;;;;;;;;;5084665;28;20418;-75
2022/01/24 11:18:26;;;;;;;47.17;22.92;;;;;;;;;;5091589;28;20032;-75
2022/01/24 11:21:01;;;;;;;46.28;22.75;;;;;;;;;;5099416;28;20044;-74
2022/01/24 11:23:29;;;;;;;43.20;22.77;;;;;;;;;;5092221;28;20040;-71
2022/01/24 11:25:57;;;;;;;45.20;23.33;;;;;;;;;;5100126;28;20054;-71
2022/01/24 11:28:25;;;;;;;43.22;21.40;;;;;;;;;;5110097;28;20039;-71
2022/01/24 11:31:00;;;;;;;42.30;23.00;;;;;;;;;;5107574;28;20455;-71
2022/01/24 11:33:40;;;;;;;41.15;21.65;;;;;;;;;;5102998;28;20036;-71
2022/01/24 11:36:08;;;;;;;42.70;22.35;;;5.90;99.90;;;;;;5107347;28;20491;-71
2022/01/24 11:38:35;;;;;;;43.78;21.10;;;;;;;;;;5102503;28;20064;-71
2022/01/24 11:41:04;;;;;;;43.38;22.40;;;;;;;;;;5079082;28;20048;-71
2022/01/24 11:43:38;;;;;;;43.67;22.52;;;;;;;;;;5096973;28;20529;-71
2022/01/24 11:46:24;;;;;;;40.28;20.83;;;6.00;99.90;;;;;;5098892;28;20036;-71
2022/01/24 11:49:02;;;;;;;41.67;22.23;;;;;;;;;;5085498;28;20039;-73
2022/01/24 11:51:32;;;;;;;42.60;21.35;;;;;;;;;;5100303;28;20051;-73
2022/01/24 11:53:59;;;;;;;47.17;24.40;;;;;;;;;;5087086;28;20043;-73
2022/01/24 11:56:26;;;;;;;50.78;24.75;;;;;;;;;;5076564;28;20545;-73
2022/01/24 11:59:19;;;;;;;54.97;25.80;;;6.10;99.90;;;;;;5093869;28;20042;-73
2022/01/24 12:01:48;;;;;;;48.63;25.50;;;;;;;;;;5096841;28;20127;-73
2022/01/24 12:04:14;;;;;;;53.88;23.75;;;;;;;;;;5101052;28;20044;-73
2022/01/24 12:06:58;;;;;;;41.42;22.02;;;;;;;;;;5079874;28;20567;-72
2022/01/24 12:09:24;;;;;;;45.83;22.95;;;;;;;;;;5103375;28;20068;-73
2022/01/24 12:11:53;;;;;;;43.17;22.35;;;;;;;;;;5104552;28;20075;-73
2022/01/24 12:14:24;;;;;;;54.35;26.48;;;;;;;;;;5094478;28;20114;-73
2022/01/24 12:16:50;;;;;;;52.65;27.67;;;;;;;;;;5071567;28;20063;-73
2022/01/24 12:19:31;;;;;;;48.35;25.00;;;6.00;99.90;;;;;;5115410;28;20122;-72
2022/01/24 12:21:57;;;;;;;48.20;24.75;;;;;;;;;;5106173;28;20108;-72
2022/01/24 12:24:23;;;;;;;51.35;26.65;;;;;;;;;;5115464;28;20126;-72
2022/01/24 12:26:50;;;;;;;49.13;25.48;;;;;;;;;;5113667;28;20498;-72
2022/01/24 12:29:19;;;;;;;55.03;25.80;;;6.20;99.90;;;;;;5115502;28;20055;-72
2022/01/24 12:31:45;;;;;;;53.13;26.08;;;;;;;;;;5105582;28;20055;-70
2022/01/24 12:34:16;;;;;;;51.67;25.92;;;;;;;;;;5114889;28;20357;-73
2022/01/24 12:36:49;;;;;;;50.35;25.83;;;;;;;;;;5110933;28;20120;-74
2022/01/24 12:39:15;;;;;;;48.08;24.13;;;;;;;;;;5114697;28;20531;-73
2022/01/24 12:41:47;;;;;;;48.08;24.23;;;;;;;;;;5115353;28;20043;-73
2022/01/24 12:47:31;;;;;;;47.45;24.08;;;6.10;99.90;;;;;;5115131;28;20046;-73
2022/01/24 12:49:58;;;;;;;47.63;24.85;;;;;;;;;;5081426;28;20052;-74
2022/01/24 12:52:29;;;;;;;54.30;28.10;;;5.90;99.90;;;;;;5094577;28;20036;-73
2022/01/24 12:54:57;;;;;;;47.60;26.93;;;;;;;;;;5094727;28;20071;-74
2022/01/24 12:57:29;;;;;;;55.17;29.50;;;6.00;99.90;;;;;;5094777;28;20078;-73
2022/01/24 12:59:55;;;;;;;48.00;25.30;;;;;;;;;;5094763;28;20105;-73
2022/01/24 13:02:27;;;;;;;56.03;29.92;;;5.60;99.90;;;;;;5077779;28;20044;-74
2022/01/24 13:04:59;;;;;;;54.70;29.45;;;;;;;;;;5094637;28;20503;-74
2022/01/24 13:07:25;;;;;;;58.22;30.58;;;;;;;;;;5077372;28;20097;-73
2022/01/24 13:09:51;;;;;;;54.60;30.73;;;;;;;;;;5094216;28;20040;-74
2022/01/24 13:12:17;;;;;;;52.55;28.50;;;;;;;;;;5094086;28;20127;-73
2022/01/24 13:14:55;;;;;;;51.20;28.48;;;6.00;99.90;;;;;;5077330;28;20126;-74
2022/01/24 13:23:02;;;;;;;51.63;28.52;;;;;;;;;;5094286;28;20052;-74
2022/01/24 13:25:30;;;;;;;55.78;30.15;;;;;;;;;;5094095;28;20487;-74
2022/01/24 13:28:02;;;;;;;50.38;28.67;;;6.20;99.90;;;;;;5085218;28;20040;-74
2022/01/24 13:30:38;;;;;;;51.92;27.98;;;;;;;;;;5114037;28;20040;-74
2022/01/24 13:33:04;;;;;;;53.17;29.05;;;;;;;;;;5113900;28;20039;-74
2022/01/24 13:35:32;;;;;;;53.67;29.52;;;;;;;;;;5114153;28;20142;-74
2022/01/24 13:38:13;;;;;;;53.55;29.25;;;;;;;;;;5114036;28;20040;-74
2022/01/24 13:41:02;;;;;;;53.70;30.67;;;6.10;99.90;;;;;;5113158;28;20566;-74
2022/01/24 13:43:31;;;;;;;54.90;30.30;;;;;;;;;;5113735;28;20079;-74
2022/01/24 13:45:57;;;;;;;51.38;29.33;;;;;;;;;;5097003;28;20100;-74
2022/01/24 13:48:24;;;;;;;54.53;30.25;;;;;;;;;;5113883;28;20096;-73
2022/01/24 13:50:58;;;;;;;54.75;28.95;;;;;;;;;;5113916;28;20475;-74
2022/01/24 13:53:43;;;;;;;51.70;29.05;;;;;;;;;;5114326;28;20038;-74
2022/01/24 13:56:22;;;;;;;50.60;28.40;;;5.90;99.90;;;;;;5114017;28;20031;-74
2022/01/24 13:59:10;;;;;;;46.15;27.15;;;6.20;99.90;;;;;;5113481;28;20069;-74
2022/01/24 14:01:59;;;;;;;45.67;26.92;;;5.90;99.90;;;;;;5113677;28;20071;-73
2022/01/24 14:04:38;;;;;;;55.30;28.42;;;6.00;99.90;;;;;;5096610;28;20036;-74
2022/01/24 14:07:11;;;;;;;46.17;26.65;;;6.00;99.90;;;;;;5113885;28;20052;-74
2022/01/24 14:09:39;;;;;;;49.05;26.92;;;;;;;;;;5096566;28;20460;-74
2022/01/24 14:12:08;;;;;;;52.72;28.08;;;6.10;99.90;;;;;;5113319;28;20118;-74
2022/01/24 14:14:58;;;;;;;50.47;28.98;;;;;;;;;;5114066;28;20402;-74
2022/01/24 14:20:15;;;;;;;50.58;26.73;;;;;;;;;;5075783;28;20078;-74
2022/01/24 14:22:53;;;;;;;46.38;26.23;;;6.10;99.90;;;;;;5113228;28;20081;-74
2022/01/24 14:25:27;;;;;;;52.53;28.50;;;;;;;;;;5113128;28;20061;-74
2022/01/24 14:27:56;;;;;;;52.50;29.45;;;;;;;;;;5106838;28;20127;-74
2022/01/24 14:30:26;;;;;;;59.10;31.10;;;;;;;;;;5099661;28;20072;-74
2022/01/24 14:33:04;;;;;;;50.90;28.42;;;;;;;;;;5092005;28;20040;-74
2022/01/24 14:35:34;;;;;;;51.63;29.67;;;;;;;;;;5092636;28;20036;-74
2022/01/24 14:38:00;;;;;;;50.22;28.77;;;;;;;;;;5092873;28;20040;-74
2022/01/24 14:40:36;;;;;;;47.50;27.75;;;;;;;;;;5075664;28;20044;-74
2022/01/24 14:45:47;;;;;;;57.35;29.10;;;;;;;;;;5092622;28;20116;-74
2022/01/24 14:48:13;;;;;;;49.25;28.63;;;;;;;;;;5075636;28;20078;-74
2022/01/24 14:50:39;;;;;;;51.67;29.85;;;;;;;;;;5092357;28;20047;-74
2022/01/24 14:53:08;;;;;;;53.30;27.75;;;;;;;;;;5092096;28;20032;-74
2022/01/24 14:55:34;;;;;;;48.42;29.10;;;6.00;99.90;;;;;;5092661;28;20040;-74
2022/01/24 14:58:00;;;;;;;53.35;30.08;;;6.40;99.90;;;;;;5075113;28;20036;-74
2022/01/24 15:00:27;;;;;;;48.20;27.23;;;6.80;99.90;;;;;;5092269;28;20039;-74
2022/01/24 15:02:54;;;;;;;51.95;29.17;;;;;;;;;;5091989;28;20036;-73
2022/01/24 15:05:21;;;;;;;50.38;28.40;;;;;;;;;;5092014;28;20547;-73
2022/01/24 15:07:47;;;;;;;49.45;27.52;;;6.00;99.90;;;;;;5092193;28;20039;-73
2022/01/24 15:10:14;;;;;;;49.90;28.95;;;;;;;;;;5091954;28;20047;-74
2022/01/24 15:12:46;;;;;;;50.95;28.67;;;;;;;;;;5092096;28;20046;-73
2022/01/24 15:15:16;;;;;;;49.15;27.25;;;;;;;;;;5092034;28;20043;-73
2022/01/24 15:25:43;;;;;;;49.08;28.00;;;;;;;;;;5084485;28;20508;-74
2022/01/24 15:28:11;;;;;;;49.38;27.30;;;;;;;;;;5105647;28;20048;-74
2022/01/24 15:30:40;;;;;;;49.35;27.75;;;;;;;;;;5118832;28;20078;-74
2022/01/24 15:33:06;;;;;;;49.38;27.70;;;;;;;;;;5108234;28;20039;-74
2022/01/24 15:35:32;;;;;;;50.00;27.92;;;;;;;;;;5097357;28;20120;-74
2022/01/24 15:38:04;;;;;;;47.70;26.42;;;;;;;;;;5076377;28;20043;-74
2022/01/24 15:40:31;;;;;;;58.33;31.15;;;;;;;;;;5097561;28;20098;-74
2022/01/24 15:43:04;;;;;;;57.55;30.33;;;;;;;;;;5118575;27;20059;-74
2022/01/24 15:45:36;;;;;;;52.45;30.10;;;;;;;;;;5083551;28;20111;-74
2022/01/24 15:48:02;;;;;;;;;;;;;;;;;;5114805;28;20118;-73
2022/01/24 15:50:29;;;;;;;52.65;28.45;;;;;;;;;;5109439;28;20011;-74
2022/01/24 15:52:56;;;;;;;57.05;30.30;;;;;;;;;;5098146;28;20036;-74
2022/01/24 15:55:30;;;;;;;54.35;30.10;;;6.00;99.90;;;;;;5086550;28;20035;-74
2022/01/24 15:57:58;;;;;;;60.00;30.77;;;5.90;99.90;;;;;;5113710;28;20035;-73
2022/01/24 16:00:26;;;;;;;57.40;31.13;;;;;;;;;;5095034;28;20040;-73
2022/01/24 16:02:53;;;;;;;55.47;28.77;;;;;;;;;;5113050;28;20131;-73
2022/01/24 16:05:20;;;;;;;51.45;29.10;;;;;;;;;;5101127;28;20571;-73
2022/01/24 16:07:47;;;;;;;44.30;25.85;;;;;;;;;;5095234;28;20047;-73